createdAt,value
2018-08-16T00:02:19.009Z,2.47
2018-08-16T00:04:45.887Z,1.93
2018-08-16T00:07:12.924Z,2.17
2018-08-16T00:09:39.900Z,2.20
2018-08-16T00:12:07.027Z,1.93
2018-08-16T00:14:33.847Z,2.30
2018-08-16T00:17:00.640Z,1.90
2018-08-16T00:19:27.588Z,2.40
2018-08-16T00:21:54.324Z,2.33
2018-08-16T00:24:21.174Z,1.97
2018-08-16T00:26:48.024Z,1.97
2018-08-16T00:29:14.863Z,2.27
2018-08-16T00:31:41.791Z,2.10
2018-08-16T00:34:08.779Z,2.17
2018-08-16T00:36:35.656Z,2.30
2018-08-16T00:39:03.774Z,2.40
2018-08-16T00:41:31.219Z,2.30
2018-08-16T00:44:03.003Z,2.40
2018-08-16T00:46:29.833Z,2.20
2018-08-16T00:48:56.839Z,2.13
2018-08-16T00:51:23.565Z,2.03
2018-08-16T00:53:50.298Z,2.20
2018-08-16T00:56:17.179Z,2.30
2018-08-16T00:58:44.074Z,2.20
2018-08-16T01:01:11.473Z,1.87
2018-08-16T01:03:38.271Z,2.00
2018-08-16T01:06:04.985Z,2.20
2018-08-16T01:08:32.286Z,2.60
2018-08-16T01:10:59.103Z,2.60
2018-08-16T01:13:25.790Z,2.27
2018-08-16T01:15:53.017Z,2.20
2018-08-16T01:18:20.668Z,2.37
2018-08-16T01:20:47.587Z,2.03
2018-08-16T01:23:14.664Z,2.50
2018-08-16T01:25:41.504Z,2.27
2018-08-16T01:28:08.819Z,2.80
2018-08-16T01:30:35.703Z,2.13
2018-08-16T01:33:02.980Z,2.40
2018-08-16T01:35:29.865Z,1.97
2018-08-16T01:37:56.847Z,2.33
2018-08-16T01:40:23.901Z,2.60
2018-08-16T01:42:51.196Z,2.70
2018-08-16T01:45:18.105Z,2.20
2018-08-16T01:47:45.051Z,2.30
2018-08-16T01:50:11.875Z,2.37
2018-08-16T01:52:38.755Z,2.77
2018-08-16T01:55:05.586Z,2.63
2018-08-16T01:57:32.988Z,2.43
2018-08-16T01:59:59.780Z,3.07
2018-08-16T02:02:27.957Z,2.60
2018-08-16T02:04:54.748Z,2.40
2018-08-16T02:07:21.655Z,2.40
2018-08-16T02:09:48.706Z,2.30
2018-08-16T02:12:15.682Z,2.60
2018-08-16T02:14:42.718Z,2.83
2018-08-16T02:17:09.673Z,2.50
2018-08-16T02:19:36.584Z,2.40
2018-08-16T02:22:04.150Z,2.47
2018-08-16T02:24:31.781Z,2.90
2018-08-16T02:26:58.881Z,2.80
2018-08-16T02:29:25.895Z,2.50
2018-08-16T02:31:52.773Z,2.70
2018-08-16T02:34:20.673Z,2.60
2018-08-16T02:36:48.395Z,2.77
2018-08-16T02:39:15.440Z,3.33
2018-08-16T02:41:42.919Z,2.77
2018-08-16T02:44:09.753Z,2.63
2018-08-16T02:46:36.675Z,2.60
2018-08-16T02:49:03.603Z,2.60
2018-08-16T02:51:30.694Z,2.83
2018-08-16T02:53:58.210Z,2.87
2018-08-16T02:56:25.150Z,2.50
2018-08-16T02:58:51.880Z,2.83
2018-08-16T03:01:19.233Z,2.77
2018-08-16T03:03:47.845Z,2.73
2018-08-16T03:06:14.669Z,2.30
2018-08-16T03:08:41.980Z,2.67
2018-08-16T03:11:08.830Z,2.93
2018-08-16T03:13:35.662Z,2.67
2018-08-16T03:16:03.233Z,2.60
2018-08-16T03:18:30.891Z,2.77
2018-08-16T03:20:58.330Z,2.90
2018-08-16T03:23:25.022Z,2.60
2018-08-16T03:25:52.563Z,2.50
2018-08-16T03:28:20.392Z,2.73
2018-08-16T03:30:47.534Z,2.60
2018-08-16T03:33:14.288Z,2.63
2018-08-16T03:35:41.312Z,2.40
2018-08-16T03:38:08.225Z,2.53
2018-08-16T03:40:35.038Z,2.90
2018-08-16T03:43:01.881Z,2.70
2018-08-16T03:45:28.777Z,2.50
2018-08-16T03:47:55.562Z,2.40
2018-08-16T03:50:22.460Z,2.57
2018-08-16T03:52:49.264Z,2.93
2018-08-16T03:55:16.064Z,3.07
2018-08-16T03:57:42.952Z,3.00
2018-08-16T04:00:09.763Z,2.33
2018-08-16T04:02:36.693Z,2.57
2018-08-16T04:05:03.536Z,2.60
2018-08-16T04:07:30.479Z,2.63
2018-08-16T04:09:57.373Z,2.50
2018-08-16T04:12:24.229Z,2.60
2018-08-16T04:14:51.109Z,2.10
2018-08-16T04:17:17.959Z,2.70
2018-08-16T04:19:44.873Z,2.40
2018-08-16T04:22:11.832Z,2.83
2018-08-16T04:24:38.665Z,2.77
2018-08-16T04:27:05.484Z,2.37
2018-08-16T04:29:32.324Z,2.50
2018-08-16T04:31:59.250Z,2.17
2018-08-16T04:34:26.152Z,2.57
2018-08-16T04:36:53.085Z,2.50
2018-08-16T04:39:19.912Z,2.27
2018-08-16T04:41:46.837Z,2.37
2018-08-16T04:44:13.628Z,2.97
2018-08-16T04:46:40.854Z,2.47
2018-08-16T04:49:07.707Z,3.10
2018-08-16T04:51:34.556Z,2.70
2018-08-16T04:54:01.452Z,2.23
2018-08-16T04:56:28.200Z,2.80
2018-08-16T04:58:54.969Z,2.20
2018-08-16T05:01:22.092Z,2.50
2018-08-16T05:03:48.972Z,2.17
2018-08-16T05:06:15.947Z,2.77
2018-08-16T05:08:44.186Z,2.60
2018-08-16T05:11:11.143Z,2.43
2018-08-16T05:13:38.295Z,2.60
2018-08-16T05:16:05.173Z,2.37
2018-08-16T05:18:31.976Z,2.40
2018-08-16T05:20:59.008Z,2.50
2018-08-16T05:23:25.867Z,2.77
2018-08-16T05:25:52.763Z,2.40
2018-08-16T05:28:19.658Z,2.83
2018-08-16T05:30:47.272Z,2.43
2018-08-16T05:33:15.332Z,2.63
2018-08-16T05:35:42.288Z,2.50
2018-08-16T05:38:09.702Z,2.20
2018-08-16T05:40:37.506Z,2.10
2018-08-16T05:43:05.521Z,2.27
2018-08-16T05:45:32.325Z,2.70
2018-08-16T05:47:59.740Z,2.43
2018-08-16T05:50:26.833Z,2.77
2018-08-16T05:52:53.743Z,2.60
2018-08-16T05:55:20.509Z,2.50
2018-08-16T05:57:47.355Z,2.93
2018-08-16T06:00:14.232Z,2.10
2018-08-16T06:02:41.958Z,1.90
2018-08-16T06:05:09.748Z,2.47
2018-08-16T06:07:37.710Z,2.27
2018-08-16T06:10:04.973Z,2.10
2018-08-16T06:12:31.837Z,2.37
2018-08-16T06:14:58.659Z,2.47
2018-08-16T06:17:25.473Z,2.03
2018-08-16T06:19:52.661Z,2.37
2018-08-16T06:22:19.667Z,2.47
2018-08-16T06:24:46.503Z,2.27
2018-08-16T06:27:13.457Z,2.30
2018-08-16T06:29:40.390Z,2.23
2018-08-16T06:32:07.318Z,2.00
2018-08-16T06:34:34.162Z,2.27
2018-08-16T06:37:01.067Z,2.43
2018-08-16T06:39:27.926Z,2.33
2018-08-16T06:41:54.711Z,2.20
2018-08-16T06:44:21.790Z,2.10
2018-08-16T06:46:48.638Z,2.00
2018-08-16T06:49:15.423Z,2.20
2018-08-16T06:51:42.298Z,2.07
2018-08-16T06:54:09.282Z,1.80
2018-08-16T06:56:36.131Z,2.07
2018-08-16T06:59:03.139Z,2.17
2018-08-16T07:01:30.101Z,1.80
2018-08-16T07:03:57.105Z,2.07
2018-08-16T07:06:24.075Z,1.97
2018-08-16T07:08:50.996Z,2.10
2018-08-16T07:11:17.767Z,2.03
2018-08-16T07:13:44.613Z,2.27
2018-08-16T07:16:11.448Z,1.83
2018-08-16T07:18:38.375Z,1.90
2018-08-16T07:21:05.192Z,2.00
2018-08-16T07:23:32.399Z,2.17
2018-08-16T07:25:59.255Z,2.40
2018-08-16T07:28:26.050Z,2.20
2018-08-16T07:30:52.770Z,1.70
2018-08-16T07:33:19.624Z,1.83
2018-08-16T07:35:46.487Z,2.30
2018-08-16T07:38:13.319Z,2.03
2018-08-16T07:40:40.190Z,1.93
2018-08-16T07:43:07.085Z,1.90
2018-08-16T07:45:33.962Z,1.93
2018-08-16T07:48:00.800Z,1.90
2018-08-16T07:50:27.661Z,2.03
2018-08-16T07:52:54.506Z,2.10
2018-08-16T07:55:21.254Z,1.93
2018-08-16T07:57:48.143Z,1.93
2018-08-16T08:00:16.677Z,2.10
2018-08-16T08:02:43.972Z,2.00
2018-08-16T08:05:11.094Z,2.00
2018-08-16T08:07:37.890Z,1.93
2018-08-16T08:10:04.728Z,2.00
2018-08-16T08:12:31.615Z,2.00
2018-08-16T08:14:58.390Z,1.90
2018-08-16T08:17:25.345Z,2.03
2018-08-16T08:19:52.227Z,2.03
2018-08-16T08:22:19.320Z,1.57
2018-08-16T08:24:46.150Z,2.00
2018-08-16T08:27:12.998Z,2.37
2018-08-16T08:29:39.819Z,1.70
2018-08-16T08:32:06.548Z,1.60
2018-08-16T08:34:33.382Z,1.73
2018-08-16T08:37:00.149Z,1.73
2018-08-16T08:39:26.922Z,1.87
2018-08-16T08:41:53.819Z,2.13
2018-08-16T08:44:25.182Z,2.30
2018-08-16T08:46:52.513Z,2.87
2018-08-16T08:49:19.697Z,3.67
2018-08-16T08:51:46.789Z,3.73
2018-08-16T08:54:13.586Z,3.57
2018-08-16T08:56:40.955Z,3.57
2018-08-16T08:59:07.711Z,3.10
2018-08-16T09:01:34.572Z,3.33
2018-08-16T09:04:01.519Z,2.93
2018-08-16T09:06:28.353Z,2.93
2018-08-16T09:08:55.108Z,3.13
2018-08-16T09:11:21.921Z,2.47
2018-08-16T09:13:49.295Z,2.87
2018-08-16T09:16:16.347Z,3.20
2018-08-16T09:18:43.248Z,3.47
2018-08-16T09:21:10.833Z,2.50
2018-08-16T09:23:37.619Z,3.10
2018-08-16T09:26:09.989Z,2.80
2018-08-16T09:28:36.812Z,2.90
2018-08-16T09:31:03.972Z,2.43
2018-08-16T09:33:30.741Z,3.07
2018-08-16T09:35:57.517Z,2.77
2018-08-16T09:38:24.430Z,2.53
2018-08-16T09:40:51.281Z,2.90
2018-08-16T09:43:18.326Z,2.43
2018-08-16T09:45:45.279Z,2.40
2018-08-16T09:48:12.206Z,2.40
2018-08-16T09:50:39.286Z,2.30
2018-08-16T09:53:06.227Z,2.43
2018-08-16T09:55:33.072Z,2.40
2018-08-16T09:58:00.037Z,2.60
2018-08-16T10:00:32.320Z,2.20
2018-08-16T10:02:59.189Z,2.57
2018-08-16T10:05:26.148Z,2.70
2018-08-16T10:07:53.111Z,2.13
2018-08-16T10:10:19.993Z,2.53
2018-08-16T10:12:46.788Z,2.37
2018-08-16T10:15:13.669Z,2.37
2018-08-16T10:17:40.535Z,2.27
2018-08-16T10:20:07.506Z,2.50
2018-08-16T10:22:34.367Z,2.40
2018-08-16T10:25:01.271Z,2.17
2018-08-16T10:27:28.250Z,2.77
2018-08-16T10:29:55.312Z,2.30
2018-08-16T10:32:22.241Z,2.50
2018-08-16T10:34:49.138Z,2.53
2018-08-16T10:37:16.371Z,2.40
2018-08-16T10:39:43.197Z,2.10
2018-08-16T10:42:10.029Z,2.00
2018-08-16T10:44:36.892Z,1.90
2018-08-16T10:47:03.716Z,2.00
2018-08-16T10:49:30.645Z,2.00
2018-08-16T10:51:57.505Z,2.10
2018-08-16T10:54:24.327Z,2.13
2018-08-16T10:56:51.174Z,2.43
2018-08-16T10:59:18.064Z,2.53
2018-08-16T11:01:45.083Z,2.40
2018-08-16T11:04:12.633Z,2.10
2018-08-16T11:06:39.677Z,2.10
2018-08-16T11:09:06.631Z,2.10
2018-08-16T11:11:33.469Z,2.37
2018-08-16T11:14:01.515Z,2.40
2018-08-16T11:16:28.336Z,2.23
2018-08-16T11:18:55.278Z,2.53
2018-08-16T11:21:22.698Z,2.33
2018-08-16T11:23:49.637Z,2.20
2018-08-16T11:26:17.209Z,2.20
2018-08-16T11:28:43.940Z,2.27
2018-08-16T11:31:11.737Z,2.20
2018-08-16T11:33:39.533Z,2.10
2018-08-16T11:36:06.637Z,2.17
2018-08-16T11:38:33.381Z,2.40
2018-08-16T11:41:00.295Z,2.13
2018-08-16T11:43:27.280Z,2.60
2018-08-16T11:45:54.046Z,2.60
2018-08-16T11:48:22.031Z,2.50
2018-08-16T11:50:49.629Z,2.50
2018-08-16T11:53:16.485Z,2.77
2018-08-16T11:55:43.360Z,2.40
2018-08-16T11:58:10.994Z,2.37
2018-08-16T12:00:37.978Z,2.27
2018-08-16T12:03:04.764Z,2.43
2018-08-16T12:05:32.146Z,2.63
2018-08-16T12:07:59.188Z,2.57
2018-08-16T12:10:26.749Z,2.57
2018-08-16T12:12:53.650Z,2.60
2018-08-16T12:15:21.181Z,2.70
2018-08-16T12:17:48.056Z,2.83
2018-08-16T12:20:15.162Z,2.93
2018-08-16T12:22:42.828Z,2.10
2018-08-16T12:25:09.782Z,3.23
2018-08-16T12:27:37.255Z,2.60
2018-08-16T12:30:04.174Z,2.77
2018-08-16T12:32:31.224Z,3.13
2018-08-16T12:34:58.010Z,3.03
2018-08-16T12:37:24.784Z,2.90
2018-08-16T12:39:52.216Z,2.80
2018-08-16T12:42:19.072Z,2.70
2018-08-16T12:44:46.682Z,3.10
2018-08-16T12:47:13.533Z,2.87
2018-08-16T12:49:40.350Z,3.20
2018-08-16T12:52:08.040Z,3.37
2018-08-16T12:54:34.878Z,2.73
2018-08-16T12:57:02.327Z,3.13
2018-08-16T12:59:29.217Z,3.33
2018-08-16T13:01:56.200Z,3.37
2018-08-16T13:04:23.301Z,3.47
2018-08-16T13:06:50.115Z,3.03
2018-08-16T13:09:16.907Z,3.10
2018-08-16T13:11:43.636Z,3.23
2018-08-16T13:14:10.426Z,3.50
2018-08-16T13:16:37.221Z,3.17
2018-08-16T13:19:04.177Z,3.20
2018-08-16T13:21:31.108Z,3.33
2018-08-16T13:23:58.417Z,3.33
2018-08-16T13:26:25.381Z,3.67
2018-08-16T13:28:52.388Z,3.13
2018-08-16T13:31:19.218Z,3.37
2018-08-16T13:33:46.243Z,3.57
2018-08-16T13:36:13.147Z,2.80
2018-08-16T13:38:40.006Z,3.30
2018-08-16T13:41:06.783Z,3.27
2018-08-16T13:43:33.799Z,3.47
2018-08-16T13:46:00.707Z,3.20
2018-08-16T13:48:28.668Z,3.30
2018-08-16T13:50:55.474Z,3.70
2018-08-16T13:53:22.351Z,3.30
2018-08-16T13:55:49.369Z,3.60
2018-08-16T13:58:16.313Z,3.40
2018-08-16T14:00:43.252Z,3.80
2018-08-16T14:03:10.116Z,3.50
2018-08-16T14:05:37.153Z,4.13
2018-08-16T14:08:03.980Z,3.47
2018-08-16T14:10:30.806Z,3.13
2018-08-16T14:12:57.764Z,3.77
2018-08-16T14:15:24.684Z,3.83
2018-08-16T14:17:51.631Z,3.70
2018-08-16T14:20:18.752Z,3.30
2018-08-16T14:22:45.767Z,3.80
2018-08-16T14:25:12.660Z,3.80
2018-08-16T14:27:39.490Z,3.53
2018-08-16T14:30:06.375Z,3.00
2018-08-16T14:32:33.330Z,3.63
2018-08-16T14:35:00.076Z,3.73
2018-08-16T14:37:26.893Z,3.30
2018-08-16T14:39:53.772Z,3.77
2018-08-16T14:42:20.778Z,3.63
2018-08-16T14:44:47.671Z,3.70
2018-08-16T14:47:14.433Z,3.90
2018-08-16T14:49:41.226Z,4.00
2018-08-16T14:52:08.758Z,4.37
2018-08-16T14:54:36.572Z,4.50
2018-08-16T14:57:05.240Z,3.90
2018-08-16T14:59:32.919Z,4.40
2018-08-16T15:02:00.687Z,4.90
2018-08-16T15:04:28.250Z,4.10
2018-08-16T15:06:57.234Z,4.23
2018-08-16T17:05:54.125Z,3.47
2018-08-16T17:08:21.016Z,4.23
2018-08-16T17:10:52.657Z,4.10
2018-08-16T17:13:21.247Z,3.60
2018-08-16T17:15:48.042Z,3.80
2018-08-16T17:18:14.792Z,3.53
2018-08-16T17:20:41.601Z,3.80
2018-08-16T17:23:08.395Z,3.97
2018-08-16T17:25:35.345Z,3.90
2018-08-16T17:28:07.441Z,3.50
2018-08-16T17:30:34.375Z,3.37
2018-08-16T17:33:01.119Z,3.23
2018-08-16T17:35:27.887Z,2.77
2018-08-16T17:37:54.925Z,3.83
2018-08-16T17:40:21.797Z,3.30
2018-08-16T17:42:48.668Z,3.27
2018-08-16T17:45:15.604Z,3.10
2018-08-16T17:47:42.407Z,3.20
2018-08-16T17:50:09.347Z,3.00
2018-08-16T17:52:36.364Z,2.73
2018-08-16T17:55:03.133Z,2.73
2018-08-16T17:57:29.927Z,2.77
2018-08-16T17:59:56.825Z,2.77
2018-08-16T18:02:23.772Z,2.70
2018-08-16T18:04:50.793Z,2.50
2018-08-16T18:07:17.650Z,2.27
2018-08-16T18:09:44.588Z,2.60
2018-08-16T18:12:11.394Z,2.40
2018-08-16T18:14:39.050Z,2.50
2018-08-16T18:17:06.008Z,2.20
2018-08-16T18:19:33.042Z,2.27
2018-08-16T18:21:59.953Z,2.17
2018-08-16T18:24:27.692Z,2.10
2018-08-16T18:26:54.498Z,2.00
2018-08-16T18:29:22.136Z,2.07
2018-08-16T18:31:49.040Z,1.93
2018-08-16T18:34:15.864Z,1.87
2018-08-16T18:36:42.863Z,2.13
2018-08-16T18:39:09.788Z,2.10
2018-08-16T18:41:37.056Z,2.07
2018-08-16T18:44:04.569Z,1.80
2018-08-16T18:46:31.427Z,2.10
2018-08-16T18:49:08.278Z,1.73
2018-08-16T18:51:36.959Z,1.70
2018-08-16T18:54:05.359Z,2.10
2018-08-16T18:56:32.991Z,1.70
2018-08-16T18:58:59.953Z,2.30
2018-08-16T19:04:03.403Z,1.80
2018-08-16T19:06:30.472Z,2.10
2018-08-16T19:08:57.383Z,1.80
2018-08-16T19:11:24.376Z,1.90
2018-08-16T19:13:51.863Z,1.57
2018-08-16T19:16:18.997Z,2.10
2018-08-16T19:18:46.195Z,1.63
2018-08-16T19:21:14.045Z,1.70
2018-08-16T19:23:41.069Z,1.50
2018-08-16T19:26:08.520Z,1.60
2018-08-16T19:28:36.421Z,1.47
2018-08-16T19:31:03.562Z,1.80
2018-08-16T19:33:31.068Z,1.33
2018-08-16T19:35:58.669Z,1.63
2018-08-16T19:38:25.607Z,1.67
2018-08-16T19:40:53.249Z,1.70
2018-08-16T19:43:20.497Z,1.80
2018-08-16T19:45:47.383Z,1.50
2018-08-16T19:48:15.293Z,1.93
2018-08-16T19:50:42.111Z,1.70
2018-08-16T19:53:09.677Z,1.57
2018-08-16T19:55:36.523Z,1.67
2018-08-16T19:58:03.917Z,1.80
2018-08-16T20:00:30.960Z,1.60
2018-08-16T20:02:57.809Z,1.40
2018-08-16T20:05:24.659Z,1.47
2018-08-16T20:07:52.306Z,1.77
2018-08-16T20:10:19.132Z,1.30
2018-08-16T20:12:45.971Z,1.77
2018-08-16T20:15:13.715Z,1.47
2018-08-16T20:17:41.751Z,1.70
2018-08-16T20:20:08.693Z,1.53
2018-08-16T20:22:36.368Z,1.33
2018-08-16T20:25:04.045Z,1.43
2018-08-16T20:27:30.919Z,1.63
2018-08-16T20:29:57.752Z,1.50
2018-08-16T20:32:24.518Z,1.73
2018-08-16T20:34:51.861Z,1.70
2018-08-16T20:37:19.419Z,1.33
2018-08-16T20:39:46.231Z,1.40
2018-08-16T20:42:13.128Z,1.43
2018-08-16T20:44:40.522Z,1.60
2018-08-16T20:47:07.373Z,1.37
2018-08-16T20:49:34.159Z,1.30
2018-08-16T20:52:01.925Z,1.47
2018-08-16T20:54:28.652Z,1.60
2018-08-16T20:56:55.951Z,1.53
2018-08-16T20:59:23.239Z,1.80
2018-08-16T21:01:50.047Z,1.77
2018-08-16T21:04:16.816Z,1.50
2018-08-16T21:06:44.458Z,1.53
2018-08-16T21:09:11.293Z,1.43
2018-08-16T21:11:38.213Z,1.40
2018-08-16T21:14:04.950Z,1.50
2018-08-16T21:19:20.650Z,1.40
2018-08-16T21:21:47.362Z,1.80
2018-08-16T21:24:14.020Z,1.43
2018-08-16T21:26:41.515Z,1.60
2018-08-16T21:29:08.120Z,1.40
2018-08-16T21:31:34.883Z,1.80
2018-08-16T21:34:01.655Z,1.57
2018-08-16T21:36:29.273Z,1.63
2018-08-16T21:38:55.902Z,1.70
2018-08-16T21:41:22.581Z,1.70
2018-08-16T21:43:50.200Z,1.63
2018-08-16T21:46:16.896Z,1.60
2018-08-16T21:48:43.574Z,1.97
2018-08-16T21:51:10.224Z,1.70
2018-08-16T21:53:36.888Z,2.10
2018-08-16T21:56:03.666Z,1.50
2018-08-16T21:58:30.492Z,1.90
2018-08-16T22:00:57.152Z,1.87
2018-08-16T22:03:25.029Z,1.53
2018-08-16T22:05:53.042Z,1.53
2018-08-16T22:08:19.707Z,1.97
2018-08-16T22:10:46.363Z,1.83
2018-08-16T22:13:13.033Z,1.70
2018-08-16T22:15:40.333Z,1.67
2018-08-16T22:18:07.727Z,1.60
2018-08-16T22:20:34.605Z,1.93
2018-08-16T22:23:01.625Z,1.60
2018-08-16T22:25:28.793Z,1.87
2018-08-16T22:27:55.538Z,1.70
2018-08-16T22:30:22.292Z,1.70
2018-08-16T22:32:49.837Z,1.60
2018-08-16T22:35:18.087Z,1.60
2018-08-16T22:37:44.786Z,1.40
2018-08-16T22:40:11.500Z,2.00
2018-08-16T22:42:38.475Z,1.63
2018-08-16T22:45:05.960Z,1.63
2018-08-16T22:47:33.643Z,1.63
2018-08-16T22:50:00.283Z,1.80
2018-08-16T22:52:27.291Z,1.70
2018-08-16T22:54:54.121Z,1.20
2018-08-16T22:57:20.853Z,1.50
2018-08-16T22:59:47.526Z,2.00
2018-08-16T23:02:14.356Z,1.67
2018-08-16T23:04:41.072Z,1.50
2018-08-16T23:07:07.755Z,1.60
2018-08-16T23:09:34.391Z,1.50
2018-08-16T23:12:01.389Z,1.63
2018-08-16T23:14:28.137Z,1.73
2018-08-16T23:16:55.732Z,1.50
2018-08-16T23:19:22.400Z,1.60
2018-08-16T23:21:49.040Z,1.50
2018-08-16T23:24:15.739Z,1.33
2018-08-16T23:26:42.478Z,1.80
2018-08-16T23:29:09.113Z,1.50
2018-08-16T23:31:35.746Z,1.60
2018-08-16T23:34:02.402Z,1.67
2018-08-16T23:36:29.287Z,1.60
2018-08-16T23:38:55.934Z,1.50
2018-08-16T23:41:22.610Z,1.50
2018-08-16T23:43:49.242Z,1.33
2018-08-16T23:46:15.912Z,1.73
2018-08-16T23:48:42.576Z,1.30
2018-08-16T23:51:09.215Z,1.23
2018-08-16T23:53:40.714Z,1.40
2018-08-16T23:56:10.141Z,1.27
2018-08-16T23:58:38.596Z,1.47
